Flight Track Log - Related Links

Times and Time Zones

All times are in EDT time to prevent confusion due to time zone crossing. See the ASQ5963 flight status page for this flight to view local times or setup timezone preferences in your user account.

Time Position Orientation Groundspeed Altitude Reporting Facility
EDT Latitude Longitude Course Direction KTS MPH feet Rate Location/Type
Mon 02:12:00 PM 29.9786 -95.2981 41° Northeast 203 234 600  Level Houston Center
Mon 02:13:05 PM 30.0144 -95.2561 45° Northeast 249 287 1,700 1,309 Climbing Houston Center
Mon 02:13:50 PM 30.0728 -95.2506 North 266 306 3,000 1,868 Climbing Houston Center
Mon 02:14:51 PM 30.1517 -95.2383 North 283 326 5,000 1,951 Climbing Houston Center
Mon 02:15:00 PM 30.3908 -95.1713 23° Northeast  Level FlightAware Approximate
Mon 02:15:53 PM 30.2369 -95.2303 North 293 337 7,000  Level Houston Center
Mon 02:16:00 PM 30.4883 -95.1170 27° Northeast  Level FlightAware Approximate
Mon 02:17:00 PM 30.5848 -95.0652 41° Northeast  Level FlightAware Approximate
Mon 02:17:13 PM 30.3453 -95.1972 15° North 306 352 9,500  Level Houston Center
Mon 02:18:15 PM 30.4350 -95.1703 15° North 315 362 10,500 726 Climbing Houston Center
Mon 02:19:17 PM 30.5239 -95.1158 28° Northeast 364 419 11,000 683 Climbing Houston Center
Mon 02:20:18 PM 30.5711 -95.0094 63° Northeast 379 436 11,900 1,073 Climbing Houston Center
Mon 02:21:20 PM 30.6075 -94.8975 69° East 374 430 13,200 1,258 Climbing Houston Center
Mon 02:22:22 PM 30.6428 -94.7869 70° East 368 423 14,500 1,355 Climbing Houston Center
Mon 02:23:24 PM 30.6917 -94.6917 59° Northeast 355 409 16,000 1,210 Climbing Houston Center
Mon 02:24:26 PM 30.8011 -94.6492 18° North 350 403 17,000 629 Climbing Houston Center
Mon 02:25:28 PM 30.9050 -94.6286 10° North 379 436 17,300 581 Climbing Houston Center
Mon 02:26:30 PM 31.0111 -94.6297 359° North 383 441 18,200 968 Climbing Houston Center
Mon 02:27:32 PM 31.1125 -94.6311 359° North 369 425 19,300 1,113 Climbing Houston Center
Mon 02:28:34 PM 31.2097 -94.6172 North 372 428 20,500 1,258 Climbing Houston Center
Mon 02:29:36 PM 31.2681 -94.5081 58° Northeast 338 389 21,900 774 Climbing Houston Center
Mon 02:30:38 PM 31.2933 -94.3975 75° East 349 402 22,100 726 Climbing Houston Center
Mon 02:31:40 PM 31.3186 -94.2831 75° East 359 413 23,400 1,113 Climbing Houston Center
Mon 02:32:42 PM 31.3428 -94.1719 76° East 355 409 24,400 968 Climbing Houston Center
Mon 02:33:44 PM 31.3667 -94.0603 76° East 354 407 25,400 968 Climbing Houston Center
Mon 02:34:46 PM 31.3911 -93.9494 75° East 353 406 26,400 968 Climbing Houston Center
Mon 02:35:48 PM 31.4203 -93.8122 76° East 360 414 27,400 919 Climbing Houston Center
Mon 02:36:50 PM 31.4444 -93.6983 76° East 360 414 28,300 823 Climbing Houston Center
Mon 02:37:52 PM 31.4672 -93.5864 77° East 366 421 29,100 774 Climbing Houston Center
Mon 02:38:54 PM 31.4922 -93.4717 76° East 365 420 29,900 823 Climbing Houston Center
Mon 02:39:56 PM 31.5175 -93.3550 76° East 367 422 30,800 823 Climbing Houston Center
Mon 02:40:58 PM 31.5422 -93.2361 76° East 370 426 31,600 871 Climbing Houston Center
Mon 02:42:00 PM 31.5711 -93.0931 77° East 375 432 32,600 919 Climbing Houston Center
Mon 02:43:02 PM 31.5961 -92.9744 76° East 375 432 33,500 823 Climbing Houston Center
Mon 02:44:04 PM 31.6197 -92.8558 77° East 374 430 34,300 726 Climbing Houston Center
Mon 02:45:06 PM 31.6442 -92.7372 76° East 374 430 35,000 339 Climbing Houston Center
Mon 02:46:08 PM 31.6706 -92.6136 76° East 381 438 35,000  Level Houston Center
Mon 02:47:10 PM 31.6964 -92.4864 77° East 401 461 35,000  Level Houston Center
Mon 02:48:12 PM 31.7239 -92.3522 76° East 417 480 35,000  Level Houston Center
Mon 02:49:14 PM 31.7553 -92.1881 77° East 426 490 35,000  Level Houston Center
Mon 02:50:16 PM 31.7831 -92.0539 76° East 425 489 35,000  Level Houston Center
Mon 02:51:18 PM 31.8086 -91.9136 78° East 422 486 35,000  Level Houston Center
Mon 02:52:20 PM 31.8342 -91.7811 77° East 418 481 35,000  Level Houston Center
Mon 02:53:22 PM 31.8611 -91.6469 77° East 420 483 35,000  Level Houston Center
Mon 02:54:24 PM 31.8878 -91.5108 77° East 426 490 35,000  Level Houston Center
Mon 02:55:26 PM 31.9128 -91.3772 78° East 420 483 35,000  Level Houston Center
Mon 02:56:28 PM 31.9439 -91.2178 77° East 417 480 35,000  Level Houston Center
Mon 02:57:30 PM 31.9792 -91.0867 72° East 419 482 35,000  Level Houston Center
Mon 02:58:32 PM 32.0258 -90.9614 66° East 416 479 35,000  Level Houston Center
Mon 02:59:34 PM 32.0728 -90.8339 66° East 423 487 35,000  Level Houston Center
Mon 03:00:36 PM 32.1225 -90.7028 66° East 426 490 35,000  Level Houston Center
Mon 03:01:38 PM 32.1689 -90.5728 67° East 429 494 35,000  Level Houston Center
Mon 03:02:50 PM 32.2294 -90.4017 67° East 416 479 35,000  Level Memphis Center
Mon 03:03:50 PM 32.2753 -90.2764 67° East 416 479 35,000  Level Memphis Center
Mon 03:04:50 PM 32.3231 -90.1508 66° East 416 479 35,000  Level Memphis Center
Mon 03:05:50 PM 32.3647 -90.0350 67° East 416 479 35,000  Level Memphis Center
Mon 03:06:50 PM 32.4122 -89.9094 66° East 411 473 35,000  Level Memphis Center
Mon 03:07:50 PM 32.4556 -89.7811 68° East 417 480 35,000  Level Memphis Center
Mon 03:08:50 PM 32.5028 -89.6553 66° East 417 480 35,000  Level Memphis Center
Mon 03:09:50 PM 32.5481 -89.5267 67° East 417 480 35,000  Level Memphis Center
Mon 03:10:50 PM 32.5931 -89.3981 67° East 417 480 35,000  Level Memphis Center
Mon 03:11:50 PM 32.6381 -89.2742 67° East 417 480 35,000  Level Memphis Center
Mon 03:12:50 PM 32.6847 -89.1453 67° East 417 480 35,000  Level Memphis Center
Mon 03:13:50 PM 32.7294 -89.0211 67° East 417 480 35,000  Level Memphis Center
Mon 03:14:50 PM 32.7778 -88.8797 68° East 412 474 35,000  Level Memphis Center
Mon 03:15:50 PM 32.8222 -88.7528 67° East 412 474 35,000  Level Memphis Center
Mon 03:16:50 PM 32.8664 -88.6258 67° East 412 474 35,000  Level Memphis Center
Mon 03:17:50 PM 32.9128 -88.5014 66° East 412 474 35,000  Level Memphis Center
Mon 03:18:50 PM 32.9628 -88.3739 65° Northeast 412 474 35,000  Level Memphis Center
Mon 03:19:50 PM 33.0342 -88.2683 51° Northeast 412 474 35,000  Level Memphis Center
Mon 03:20:50 PM 33.0972 -88.1750 51° Northeast 407 468 35,000  Level Memphis Center
Mon 03:22:45 PM 33.2456 -87.9608 50° Northeast 411 473 35,000  Level Atlanta Center
Mon 03:23:45 PM 33.3197 -87.8547 50° Northeast 411 473 35,000  Level Atlanta Center
Mon 03:24:45 PM 33.3942 -87.7436 51° Northeast 416 479 35,000  Level Atlanta Center
Mon 03:25:45 PM 33.4683 -87.6347 51° Northeast 416 479 35,000  Level Atlanta Center
Mon 03:26:45 PM 33.5403 -87.5256 52° Northeast 416 479 35,000  Level Atlanta Center
Mon 03:27:45 PM 33.6119 -87.4236 50° Northeast 411 473 35,000  Level Atlanta Center
Mon 03:28:45 PM 33.6839 -87.3167 51° Northeast 411 473 35,000  Level Atlanta Center
Mon 03:29:45 PM 33.7575 -87.2094 50° Northeast 416 479 35,000  Level Atlanta Center
Mon 03:30:45 PM 33.8314 -87.1022 50° Northeast 416 479 35,000  Level Atlanta Center
Mon 03:31:45 PM 33.9028 -86.9922 52° Northeast 416 479 35,000  Level Atlanta Center
Mon 03:32:45 PM 33.9786 -86.8819 50° Northeast 416 479 35,000  Level Atlanta Center
Mon 03:33:45 PM 34.0519 -86.7717 51° Northeast 416 479 35,000  Level Atlanta Center
Mon 03:34:45 PM 34.1253 -86.6611 51° Northeast 416 479 35,000  Level Atlanta Center
Mon 03:35:45 PM 34.1986 -86.5528 51° Northeast 416 479 35,000  Level Atlanta Center
Mon 03:36:45 PM 34.2717 -86.4469 50° Northeast 416 479 35,000  Level Atlanta Center
Mon 03:37:45 PM 34.3383 -86.3481 51° Northeast 416 479 35,000  Level Atlanta Center
Mon 03:38:45 PM 34.4092 -86.2369 52° Northeast 416 479 35,000 -300 Level Atlanta Center
Mon 03:39:45 PM 34.4800 -86.1278 52° Northeast 416 479 34,400 -1,050 Descending Atlanta Center
Mon 03:40:45 PM 34.5361 -86.0081 60° Northeast 409 471 32,900 -1,600 Descending Atlanta Center
Mon 03:41:45 PM 34.5717 -85.8703 73° East 409 471 31,200 -1,700 Descending Atlanta Center
Mon 03:42:45 PM 34.6028 -85.7372 74° East 409 471 29,500 -1,750 Descending Atlanta Center
Mon 03:43:45 PM 34.6358 -85.5989 74° East 409 471 27,700 -1,900 Descending Atlanta Center
Mon 03:44:45 PM 34.6667 -85.4656 74° East 414 476 25,700 -1,800 Descending Atlanta Center
Mon 03:45:45 PM 34.7306 -85.3531 55° Northeast 409 471 24,100 -850 Descending Atlanta Center
Mon 03:46:45 PM 34.8131 -85.2456 47° Northeast 409 471 24,000 -50 Descending Atlanta Center
Mon 03:47:45 PM 34.8975 -85.1403 46° Northeast 419 482 24,000  Level Atlanta Center
Mon 03:48:45 PM 34.9903 -85.0200 47° Northeast 424 488 24,000  Level Atlanta Center
Mon 03:49:45 PM 35.0747 -84.9092 47° Northeast 439 505 24,000 -700 Level Atlanta Center
Mon 03:50:45 PM 35.1547 -84.8058 47° Northeast 439 505 22,600 -1,750 Descending Atlanta Center
Mon 03:51:45 PM 35.2283 -84.7100 47° Northeast 409 471 20,500 -2,150 Descending Atlanta Center
Mon 03:52:45 PM 35.2975 -84.6189 47° Northeast 385 443 18,300 -2,150 Descending Atlanta Center
Mon 03:53:45 PM 35.3750 -84.5456 38° Northeast 357 411 16,200 -2,000 Descending Atlanta Center
Mon 03:54:45 PM 35.4547 -84.4825 33° Northeast 346 398 14,300 -1,900 Descending Atlanta Center
Mon 03:55:45 PM 35.5383 -84.4189 32° Northeast 341 392 12,400 -1,750 Descending Atlanta Center
Mon 03:56:45 PM 35.6197 -84.3556 32° Northeast 346 398 10,800 -1,450 Descending Atlanta Center
Mon 03:57:45 PM 35.6931 -84.3022 31° Northeast 330 380 9,500 -1,550 Descending Atlanta Center
Mon 03:58:45 PM 35.7578 -84.2433 36° Northeast 302 348 7,700 -1,500 Descending Atlanta Center
Mon 03:59:45 PM 35.8100 -84.1744 47° Northeast 283 326 6,500 -1,550 Descending Atlanta Center
Mon 04:00:45 PM 35.8600 -84.1081 47° Northeast 266 306 4,600 -1,300 Descending Atlanta Center
Mon 04:01:45 PM 35.9081 -84.0439 47° Northeast 261 300 3,900 -700 Descending Atlanta Center

Login

Don't have an account? Register now (free) for customized features, flight alerts, and more!